createdAt,value
2017-04-15T00:00:17.621Z,731.49
2017-04-15T00:01:17.603Z,731.61
2017-04-15T00:02:17.584Z,731.48
2017-04-15T00:03:17.565Z,731.29
2017-04-15T00:04:17.547Z,731.51
2017-04-15T00:05:17.527Z,731.32
2017-04-15T00:06:17.509Z,731.37
2017-04-15T00:07:17.490Z,731.22
2017-04-15T00:08:17.469Z,731.38
2017-04-15T00:09:17.452Z,731.42
2017-04-15T00:10:17.433Z,731.47
2017-04-15T00:11:17.413Z,731.54
2017-04-15T00:12:17.394Z,731.52
2017-04-15T00:13:17.375Z,731.46
2017-04-15T00:14:17.354Z,731.52
2017-04-15T00:15:17.337Z,731.5
2017-04-15T00:16:17.318Z,731.31
2017-04-15T00:17:17.300Z,731.52
2017-04-15T00:18:17.281Z,731.45
2017-04-15T00:19:17.262Z,731.46
2017-04-15T00:20:17.242Z,731.36
2017-04-15T00:21:17.224Z,731.38
2017-04-15T00:22:17.205Z,731.45
2017-04-15T00:23:17.185Z,731.38
2017-04-15T00:24:17.166Z,731.4
2017-04-15T00:25:17.147Z,731.37
2017-04-15T00:26:17.130Z,731.49
2017-04-15T00:27:17.109Z,731.45
2017-04-15T00:28:17.091Z,731.47
2017-04-15T00:29:17.071Z,731.41
2017-04-15T00:30:17.053Z,731.45
2017-04-15T00:31:17.034Z,731.49
2017-04-15T00:32:17.014Z,731.6
2017-04-15T00:33:16.995Z,731.44
2017-04-15T00:34:16.975Z,731.47
2017-04-15T00:35:16.958Z,731.51
2017-04-15T00:36:16.936Z,731.28
2017-04-15T00:37:16.918Z,731.35
2017-04-15T00:38:16.900Z,731.43
2017-04-15T00:39:16.879Z,731.4
2017-04-15T00:40:16.860Z,731.37
2017-04-15T00:41:16.842Z,731.52
2017-04-15T00:42:16.824Z,731.47
2017-04-15T00:43:16.803Z,731.41
2017-04-15T00:44:16.785Z,731.42
2017-04-15T00:45:16.766Z,731.35
2017-04-15T00:46:16.748Z,731.39
2017-04-15T00:47:16.728Z,731.48
2017-04-15T00:48:16.710Z,731.38
2017-04-15T00:49:16.691Z,731.34
2017-04-15T00:50:16.671Z,731.57
2017-04-15T00:51:16.653Z,731.34
2017-04-15T00:52:16.634Z,731.29
2017-04-15T00:53:16.615Z,731.44
2017-04-15T00:54:16.594Z,731.28
2017-04-15T00:55:16.575Z,731.22
2017-04-15T00:56:16.556Z,731.33
2017-04-15T00:57:16.538Z,731.14
2017-04-15T00:58:16.517Z,731.42
2017-04-15T00:59:16.498Z,731.27
2017-04-15T01:00:16.479Z,731.42
2017-04-15T01:01:16.461Z,731.38
2017-04-15T01:02:16.441Z,731.33
2017-04-15T01:03:16.423Z,731.37
2017-04-15T01:04:16.404Z,731.45
2017-04-15T01:05:16.384Z,731.52
2017-04-15T01:06:16.364Z,731.46
2017-04-15T01:07:16.346Z,731.41
2017-04-15T01:08:16.327Z,731.48
2017-04-15T01:09:16.307Z,731.48
2017-04-15T01:10:16.288Z,731.3
2017-04-15T01:11:16.268Z,731.23
2017-04-15T01:12:16.247Z,731.31
2017-04-15T01:13:16.228Z,731.2
2017-04-15T01:14:16.209Z,731.28
2017-04-15T01:15:16.190Z,731.36
2017-04-15T01:16:16.170Z,731.27
2017-04-15T01:17:16.150Z,731.27
2017-04-15T01:18:16.132Z,731.24
2017-04-15T01:19:16.111Z,731.07
2017-04-15T01:20:16.092Z,731.06
2017-04-15T01:21:16.073Z,731.1
2017-04-15T01:22:16.054Z,731.27
2017-04-15T01:23:16.033Z,731.14
2017-04-15T01:24:16.013Z,731.29
2017-04-15T01:25:15.995Z,731.27
2017-04-15T01:26:15.975Z,731.28
2017-04-15T01:27:15.955Z,731.29
2017-04-15T01:28:15.935Z,731.29
2017-04-15T01:29:15.917Z,731.09
2017-04-15T01:30:15.897Z,731.21
2017-04-15T01:31:15.889Z,731.37
2017-04-15T01:32:15.857Z,731.35
2017-04-15T01:33:15.840Z,731.17
2017-04-15T01:34:15.818Z,731.12
2017-04-15T01:35:15.798Z,731.32
2017-04-15T01:36:15.779Z,731.33
2017-04-15T01:37:15.762Z,731.11
2017-04-15T01:38:15.740Z,731.39
2017-04-15T01:39:15.721Z,731.26
2017-04-15T01:40:15.702Z,731.4
2017-04-15T01:41:15.682Z,731.29
2017-04-15T01:42:15.662Z,731.31
2017-04-15T01:43:15.642Z,731.23
2017-04-15T01:44:15.624Z,731.3
2017-04-15T01:45:15.603Z,731.28
2017-04-15T01:46:15.585Z,731.24
2017-04-15T01:47:15.564Z,731.35
2017-04-15T01:48:15.546Z,731.22
2017-04-15T01:49:15.526Z,731.1
2017-04-15T01:50:15.506Z,731.27
2017-04-15T01:51:15.487Z,731.31
2017-04-15T01:52:15.466Z,731.37
2017-04-15T01:53:15.448Z,731.33
2017-04-15T01:54:15.429Z,731.24
2017-04-15T01:55:15.411Z,731.18
2017-04-15T01:56:15.593Z,731.01
2017-04-15T01:57:15.372Z,731.39
2017-04-15T01:58:15.352Z,731.06
2017-04-15T01:59:15.334Z,731.38
2017-04-15T02:00:15.312Z,731.28
2017-04-15T02:01:15.293Z,731.32
2017-04-15T02:02:15.277Z,731.19
2017-04-15T02:03:15.253Z,731.11
2017-04-15T02:04:15.235Z,731.13
2017-04-15T02:05:15.216Z,731.16
2017-04-15T02:06:15.197Z,731.1
2017-04-15T02:07:15.175Z,730.99
2017-04-15T02:08:15.157Z,731.04
2017-04-15T02:09:15.153Z,731.03
2017-04-15T02:10:15.117Z,731.23
2017-04-15T02:11:15.096Z,731.18
2017-04-15T02:12:15.078Z,731.36
2017-04-15T02:13:15.057Z,731.38
2017-04-15T02:14:15.038Z,731.25
2017-04-15T02:15:15.018Z,731.26
2017-04-15T02:16:15.011Z,731.32
2017-04-15T02:17:14.979Z,731.2
2017-04-15T02:18:14.959Z,731.18
2017-04-15T02:19:14.940Z,731.09
2017-04-15T02:20:14.920Z,731.11
2017-04-15T02:21:14.900Z,731.15
2017-04-15T02:22:14.884Z,731.06
2017-04-15T02:23:14.863Z,731.15
2017-04-15T02:24:14.842Z,730.96
2017-04-15T02:25:14.821Z,730.84
2017-04-15T02:26:14.802Z,730.9
2017-04-15T02:27:14.782Z,731.18
2017-04-15T02:28:14.764Z,730.9
2017-04-15T02:29:14.744Z,730.97
2017-04-15T02:30:14.724Z,731.02
2017-04-15T02:31:14.705Z,731.47
2017-04-15T02:32:14.684Z,731.29
2017-04-15T02:33:14.664Z,731.12
2017-04-15T02:34:14.645Z,731.21
2017-04-15T02:35:14.829Z,731.22
2017-04-15T02:36:14.606Z,731.19
2017-04-15T02:37:14.586Z,731.11
2017-04-15T02:38:14.567Z,731.15
2017-04-15T02:39:14.549Z,731.06
2017-04-15T02:40:14.526Z,731.11
2017-04-15T02:41:14.508Z,731.06
2017-04-15T02:42:14.488Z,731.03
2017-04-15T02:43:14.468Z,731.02
2017-04-15T02:44:14.449Z,731.18
2017-04-15T02:45:14.429Z,731.03
2017-04-15T02:46:14.408Z,730.68
2017-04-15T02:47:14.389Z,731.1
2017-04-15T02:48:14.368Z,731.1
2017-04-15T02:49:14.349Z,731.02
2017-04-15T02:50:14.330Z,731.07
2017-04-15T02:51:14.310Z,731.17
2017-04-15T02:52:14.289Z,731.12
2017-04-15T02:53:14.270Z,731.13
2017-04-15T02:54:14.252Z,731.16
2017-04-15T02:55:14.231Z,731
2017-04-15T02:56:14.211Z,731.06
2017-04-15T02:57:14.192Z,730.99
2017-04-15T02:58:14.171Z,731.15
2017-04-15T02:59:14.153Z,730.98
2017-04-15T03:00:14.134Z,731.06
2017-04-15T03:01:14.114Z,731.06
2017-04-15T03:02:14.095Z,731.01
2017-04-15T03:03:14.075Z,731.23
2017-04-15T03:04:14.055Z,731.07
2017-04-15T03:05:14.036Z,731
2017-04-15T03:06:14.016Z,731.05
2017-04-15T03:07:13.997Z,731.02
2017-04-15T03:08:13.980Z,730.99
2017-04-15T03:09:13.958Z,731.03
2017-04-15T03:10:13.940Z,731.02
2017-04-15T03:11:13.921Z,731.18
2017-04-15T03:12:13.901Z,731.15
2017-04-15T03:13:13.882Z,731.09
2017-04-15T03:14:13.864Z,730.98
2017-04-15T03:15:13.843Z,731
2017-04-15T03:16:13.824Z,730.92
2017-04-15T03:17:13.803Z,731.02
2017-04-15T03:18:13.785Z,730.91
2017-04-15T03:19:13.767Z,730.89
2017-04-15T03:20:13.745Z,731.15
2017-04-15T03:21:13.726Z,731.04
2017-04-15T03:22:13.707Z,730.85
2017-04-15T03:23:13.687Z,731.04
2017-04-15T03:24:13.668Z,730.78
2017-04-15T03:25:13.649Z,731.03
2017-04-15T03:26:13.633Z,731.12
2017-04-15T03:27:13.611Z,730.95
2017-04-15T03:28:13.591Z,730.93
2017-04-15T03:29:13.572Z,731
2017-04-15T03:30:13.553Z,731.07
2017-04-15T03:31:13.532Z,731.01
2017-04-15T03:32:13.513Z,731.03
2017-04-15T03:33:13.492Z,730.94
2017-04-15T03:34:13.473Z,731.09
2017-04-15T03:35:13.458Z,730.82
2017-04-15T03:36:13.434Z,730.82
2017-04-15T03:37:13.414Z,731.08
2017-04-15T03:38:13.404Z,730.91
2017-04-15T03:39:13.375Z,730.79
2017-04-15T03:40:13.355Z,730.93
2017-04-15T03:41:13.337Z,730.92
2017-04-15T03:42:13.316Z,730.99
2017-04-15T03:43:13.298Z,731.02
2017-04-15T03:44:13.277Z,730.97
2017-04-15T03:45:13.279Z,730.98
2017-04-15T03:46:13.239Z,730.9
2017-04-15T03:47:13.220Z,730.95
2017-04-15T03:48:13.200Z,730.9
2017-04-15T03:49:13.181Z,730.93
2017-04-15T03:50:13.161Z,730.98
2017-04-15T03:51:13.142Z,730.93
2017-04-15T03:52:13.124Z,730.96
2017-04-15T03:53:13.103Z,730.95
2017-04-15T03:54:13.085Z,730.93
2017-04-15T03:55:13.065Z,730.96
2017-04-15T03:56:13.046Z,730.82
2017-04-15T03:57:13.028Z,730.82
2017-04-15T03:58:13.008Z,730.99
2017-04-15T03:59:12.990Z,731
2017-04-15T04:00:12.975Z,730.88
2017-04-15T04:01:12.952Z,730.89
2017-04-15T04:02:12.933Z,731.07
2017-04-15T04:03:12.915Z,730.98
2017-04-15T04:04:12.894Z,731.04
2017-04-15T04:05:12.874Z,730.92
2017-04-15T04:06:12.855Z,731.02
2017-04-15T04:07:12.836Z,731
2017-04-15T04:08:12.817Z,730.95
2017-04-15T04:09:12.797Z,730.96
2017-04-15T04:10:12.778Z,730.91
2017-04-15T04:11:12.759Z,730.85
2017-04-15T04:12:12.740Z,730.92
2017-04-15T04:13:12.721Z,730.95
2017-04-15T04:14:12.703Z,730.91
2017-04-15T04:15:12.683Z,730.91
2017-04-15T04:16:12.663Z,730.87
2017-04-15T04:17:12.644Z,730.97
2017-04-15T04:18:12.628Z,730.96
2017-04-15T04:19:12.607Z,730.91
2017-04-15T04:20:12.589Z,730.85
2017-04-15T04:21:12.569Z,730.97
2017-04-15T04:22:12.551Z,730.87
2017-04-15T04:23:12.532Z,730.89
2017-04-15T04:24:12.512Z,730.76
2017-04-15T04:25:12.494Z,730.86
2017-04-15T04:26:12.474Z,730.79
2017-04-15T04:27:12.454Z,730.95
2017-04-15T04:28:12.435Z,730.87
2017-04-15T04:29:12.416Z,731.03
2017-04-15T04:30:12.397Z,730.91
2017-04-15T04:31:12.378Z,730.87
2017-04-15T04:32:12.359Z,730.9
2017-04-15T04:33:12.338Z,730.9
2017-04-15T04:34:12.319Z,730.92
2017-04-15T04:35:12.300Z,730.93
2017-04-15T04:36:12.281Z,730.94
2017-04-15T04:37:12.263Z,730.99
2017-04-15T04:38:12.244Z,730.98
2017-04-15T04:39:12.230Z,731.03
2017-04-15T04:40:12.205Z,730.99
2017-04-15T04:41:12.186Z,731
2017-04-15T04:42:12.167Z,731.05
2017-04-15T04:43:12.148Z,730.8
2017-04-15T04:44:12.128Z,730.81
2017-04-15T04:45:12.109Z,730.94
2017-04-15T04:46:12.089Z,730.88
2017-04-15T04:47:12.070Z,730.99
2017-04-15T04:48:12.052Z,731
2017-04-15T04:49:12.033Z,731.05
2017-04-15T04:50:12.013Z,731.01
2017-04-15T04:51:11.994Z,730.8
2017-04-15T04:52:11.974Z,730.92
2017-04-15T04:53:11.954Z,730.86
2017-04-15T04:54:11.937Z,730.85
2017-04-15T04:55:11.916Z,730.74
2017-04-15T04:56:11.898Z,730.88
2017-04-15T04:57:11.878Z,730.8
2017-04-15T04:58:11.860Z,730.83
2017-04-15T04:59:11.839Z,730.68
2017-04-15T05:00:11.820Z,730.86
2017-04-15T05:01:11.801Z,730.89
2017-04-15T05:02:11.783Z,730.98
2017-04-15T05:03:11.763Z,731.04
2017-04-15T05:04:11.745Z,731.03
2017-04-15T05:05:11.726Z,730.99
2017-04-15T05:06:11.706Z,730.92
2017-04-15T05:07:11.688Z,730.99
2017-04-15T05:08:11.668Z,731.21
2017-04-15T05:09:11.649Z,731.01
2017-04-15T05:10:11.630Z,730.88
2017-04-15T05:11:11.617Z,730.97
2017-04-15T05:12:11.593Z,730.95
2017-04-15T05:13:11.573Z,731.01
2017-04-15T05:14:11.553Z,731.14
2017-04-15T05:15:11.536Z,731.1
2017-04-15T05:16:11.516Z,730.88
2017-04-15T05:17:11.497Z,730.89
2017-04-15T05:18:11.479Z,731.14
2017-04-15T05:19:11.461Z,731.02
2017-04-15T05:20:11.440Z,731.02
2017-04-15T05:21:11.421Z,730.93
2017-04-15T05:22:11.403Z,731.16
2017-04-15T05:23:11.385Z,731.03
2017-04-15T05:24:11.364Z,731.01
2017-04-15T05:25:11.345Z,730.98
2017-04-15T05:26:11.326Z,730.99
2017-04-15T05:27:11.307Z,731.15
2017-04-15T05:28:11.289Z,731.16
2017-04-15T05:29:11.271Z,731.09
2017-04-15T05:30:11.251Z,731.14
2017-04-15T05:31:11.233Z,731.01
2017-04-15T05:32:11.212Z,731.2
2017-04-15T05:33:11.196Z,731.08
2017-04-15T05:34:11.176Z,731.1
2017-04-15T05:35:11.156Z,731.16
2017-04-15T05:36:11.139Z,731.12
2017-04-15T05:37:11.118Z,731.11
2017-04-15T05:38:11.101Z,731.1
2017-04-15T05:39:11.080Z,731.09
2017-04-15T05:40:11.061Z,731.13
2017-04-15T05:41:11.043Z,731.08
2017-04-15T05:42:11.025Z,731.1
2017-04-15T05:43:11.007Z,731.01
2017-04-15T05:44:10.988Z,731.1
2017-04-15T05:45:10.968Z,731.16
2017-04-15T05:46:10.948Z,731.2
2017-04-15T05:47:10.930Z,731.28
2017-04-15T05:48:10.912Z,731.3
2017-04-15T05:49:10.892Z,731.09
2017-04-15T05:50:10.873Z,731.13
2017-04-15T05:51:10.853Z,731.23
2017-04-15T05:52:10.833Z,731.26
2017-04-15T05:53:10.814Z,731.26
2017-04-15T05:54:10.796Z,731.18
2017-04-15T05:55:10.777Z,731.34
2017-04-15T05:56:10.756Z,731.21
2017-04-15T05:57:10.737Z,731.16
2017-04-15T05:58:10.718Z,731.23
2017-04-15T05:59:10.698Z,731.08
2017-04-15T06:00:10.679Z,731.29
2017-04-15T06:01:10.660Z,731.28
2017-04-15T06:02:10.640Z,731.54
2017-04-15T06:03:10.620Z,731.64
2017-04-15T06:04:10.603Z,731.26
2017-04-15T06:05:10.580Z,731.19
2017-04-15T06:06:10.560Z,731.29
2017-04-15T06:07:10.541Z,731.49
2017-04-15T06:08:10.520Z,731.33
2017-04-15T06:09:10.500Z,731.4
2017-04-15T06:10:10.482Z,731.4
2017-04-15T06:11:10.460Z,731.28
2017-04-15T06:12:10.440Z,731.33
2017-04-15T06:13:10.420Z,731.38
2017-04-15T06:14:10.401Z,731.48
2017-04-15T06:15:10.380Z,731.21
2017-04-15T06:16:10.360Z,731.5
2017-04-15T06:17:10.340Z,731.37
2017-04-15T06:18:10.320Z,731.43
2017-04-15T06:19:10.298Z,731.34
2017-04-15T06:20:10.279Z,731.46
2017-04-15T06:21:10.258Z,731.46
2017-04-15T06:22:10.239Z,731.43
2017-04-15T06:23:10.218Z,731.48
2017-04-15T06:24:10.198Z,731.47
2017-04-15T06:25:10.177Z,731.45
2017-04-15T06:26:10.159Z,731.44
2017-04-15T06:27:10.138Z,731.37
2017-04-15T06:28:10.118Z,731.51
2017-04-15T06:29:10.096Z,731.49
2017-04-15T06:30:10.076Z,731.56
2017-04-15T06:31:10.057Z,731.29
2017-04-15T06:32:10.037Z,731.42
2017-04-15T06:33:10.016Z,731.52
2017-04-15T06:34:09.997Z,731.28
2017-04-15T06:35:09.976Z,731.58
2017-04-15T06:36:09.956Z,731.6
2017-04-15T06:37:09.936Z,731.35
2017-04-15T06:38:09.918Z,731.5
2017-04-15T06:39:09.897Z,731.57
2017-04-15T06:40:09.878Z,731.56
2017-04-15T06:41:09.857Z,731.46
2017-04-15T06:42:09.837Z,731.4
2017-04-15T06:43:09.817Z,731.44
2017-04-15T06:44:09.797Z,731.42
2017-04-15T06:45:09.777Z,731.51
2017-04-15T06:46:09.757Z,731.57
2017-04-15T06:47:09.736Z,731.49
2017-04-15T06:48:09.717Z,731.62
2017-04-15T06:49:09.697Z,731.53
2017-04-15T06:50:09.678Z,731.45
2017-04-15T06:51:09.658Z,731.47
2017-04-15T06:52:09.637Z,731.4
2017-04-15T06:53:09.618Z,731.51
2017-04-15T06:54:09.599Z,731.51
2017-04-15T06:55:09.579Z,731.6
2017-04-15T06:56:09.561Z,731.7
2017-04-15T06:57:09.538Z,731.47
2017-04-15T06:58:09.519Z,731.54
2017-04-15T06:59:09.498Z,731.49
2017-04-15T07:00:09.480Z,731.64
2017-04-15T07:01:09.461Z,731.48
2017-04-15T07:02:09.440Z,731.54
2017-04-15T07:03:09.421Z,731.43
2017-04-15T07:04:09.400Z,731.65
2017-04-15T07:05:09.382Z,731.5
2017-04-15T07:06:09.362Z,731.54
2017-04-15T07:07:09.350Z,731.68
2017-04-15T07:08:09.325Z,731.56
2017-04-15T07:09:09.303Z,731.56
2017-04-15T07:10:09.284Z,731.24
2017-04-15T07:11:09.264Z,731.61
2017-04-15T07:12:09.243Z,731.59
2017-04-15T07:13:09.226Z,731.48
2017-04-15T07:14:09.205Z,731.53
2017-04-15T07:15:09.186Z,731.7
2017-04-15T07:16:09.166Z,731.38
2017-04-15T07:17:09.146Z,731.53
2017-04-15T07:18:09.127Z,731.65
2017-04-15T07:19:09.108Z,731.51
2017-04-15T07:20:09.090Z,731.47
2017-04-15T07:21:09.069Z,731.61
2017-04-15T07:22:09.051Z,731.54
2017-04-15T07:23:09.030Z,731.52
2017-04-15T07:24:09.012Z,731.57
2017-04-15T07:25:08.991Z,731.66
2017-04-15T07:26:08.973Z,731.5
2017-04-15T07:27:08.954Z,731.53
2017-04-15T07:28:08.934Z,731.48
2017-04-15T07:29:08.915Z,731.65
2017-04-15T07:30:08.897Z,731.5
2017-04-15T07:31:08.878Z,731.57
2017-04-15T07:32:08.858Z,731.66
2017-04-15T07:33:08.839Z,731.65
2017-04-15T07:34:08.821Z,731.61
2017-04-15T07:35:08.802Z,731.55
2017-04-15T07:36:08.783Z,731.45
2017-04-15T07:37:08.765Z,731.73
2017-04-15T07:38:08.746Z,731.66
2017-04-15T07:39:08.728Z,731.76
2017-04-15T07:40:08.708Z,731.63
2017-04-15T07:41:08.688Z,731.58
2017-04-15T07:42:08.669Z,731.71
2017-04-15T07:43:08.650Z,731.53
2017-04-15T07:44:08.632Z,731.79
2017-04-15T07:45:08.613Z,731.86
2017-04-15T07:46:08.594Z,731.89
2017-04-15T07:47:08.574Z,731.84
2017-04-15T07:48:08.554Z,731.81
2017-04-15T07:49:08.539Z,731.75
2017-04-15T07:50:08.518Z,731.56
2017-04-15T07:51:08.498Z,731.82
2017-04-15T07:52:08.478Z,731.91
2017-04-15T07:53:08.459Z,731.81
2017-04-15T07:54:08.439Z,731.71
2017-04-15T07:55:08.421Z,731.76
2017-04-15T07:56:08.402Z,731.72
2017-04-15T07:57:08.383Z,731.69
2017-04-15T07:58:08.364Z,731.76
2017-04-15T07:59:08.348Z,731.64
2017-04-15T08:00:08.324Z,731.72
2017-04-15T08:01:08.307Z,731.74
2017-04-15T08:02:08.287Z,731.96
2017-04-15T08:03:08.269Z,731.96
2017-04-15T08:04:08.249Z,731.89
2017-04-15T08:05:08.229Z,731.92
2017-04-15T08:06:08.211Z,731.85
2017-04-15T08:07:08.191Z,731.89
2017-04-15T08:08:08.172Z,731.67
2017-04-15T08:09:08.151Z,731.84
2017-04-15T08:10:08.133Z,731.87
2017-04-15T08:11:08.114Z,731.93
2017-04-15T08:12:08.093Z,731.96
2017-04-15T08:13:08.074Z,731.84
2017-04-15T08:14:08.056Z,731.86
2017-04-15T08:15:08.037Z,731.79
2017-04-15T08:16:08.016Z,731.73
2017-04-15T08:17:07.996Z,731.76
2017-04-15T08:18:07.978Z,731.75
2017-04-15T08:19:07.957Z,731.76
2017-04-15T08:20:07.941Z,731.95
2017-04-15T08:21:07.919Z,731.82
2017-04-15T08:22:07.899Z,731.8
2017-04-15T08:23:07.878Z,731.91
2017-04-15T08:24:07.859Z,731.63
2017-04-15T08:25:07.841Z,731.62
2017-04-15T08:26:07.821Z,731.84
2017-04-15T08:27:07.800Z,731.85
2017-04-15T08:28:07.781Z,731.91
2017-04-15T08:29:07.761Z,731.89
2017-04-15T08:30:07.742Z,731.82
2017-04-15T08:31:07.722Z,731.79
2017-04-15T08:32:07.704Z,731.92
2017-04-15T08:33:07.682Z,731.72
2017-04-15T08:34:07.664Z,731.83
2017-04-15T08:35:07.643Z,731.91
2017-04-15T08:36:07.623Z,731.88
2017-04-15T08:37:07.606Z,731.8
2017-04-15T08:38:07.583Z,731.92
2017-04-15T08:39:07.565Z,731.81
2017-04-15T08:40:07.545Z,731.86
2017-04-15T08:41:07.526Z,731.7
2017-04-15T08:42:07.506Z,731.76
2017-04-15T08:43:07.490Z,731.96
2017-04-15T08:44:07.467Z,731.91
2017-04-15T08:45:07.446Z,732.03
2017-04-15T08:46:07.428Z,731.87
2017-04-15T08:47:07.407Z,732.05
2017-04-15T08:48:07.389Z,731.96
2017-04-15T08:49:07.369Z,732.05
2017-04-15T08:50:07.350Z,731.95
2017-04-15T08:51:07.330Z,731.88
2017-04-15T08:52:07.311Z,731.98
2017-04-15T08:53:07.292Z,731.84
2017-04-15T08:54:07.274Z,731.92
2017-04-15T08:55:07.254Z,731.96
2017-04-15T08:56:07.234Z,731.78
2017-04-15T08:57:07.214Z,732.05
2017-04-15T08:58:07.196Z,731.99
2017-04-15T08:59:07.179Z,731.96
2017-04-15T09:00:07.159Z,732
2017-04-15T09:01:07.140Z,731.94
2017-04-15T09:02:07.121Z,732.03
2017-04-15T09:03:07.103Z,731.97
2017-04-15T09:04:07.083Z,731.96
2017-04-15T09:05:07.064Z,731.97
2017-04-15T09:06:07.046Z,731.94
2017-04-15T09:07:07.026Z,731.91
2017-04-15T09:08:07.008Z,731.88
2017-04-15T09:09:06.991Z,732.03
2017-04-15T09:10:06.971Z,731.91
2017-04-15T09:11:06.951Z,731.93
2017-04-15T09:12:06.934Z,732.1
2017-04-15T09:13:06.915Z,732.12
2017-04-15T09:14:06.897Z,731.97
2017-04-15T09:15:06.878Z,732.02
2017-04-15T09:16:06.862Z,732.24
2017-04-15T09:17:06.841Z,732.24
2017-04-15T09:18:06.824Z,732.21
2017-04-15T09:19:06.806Z,732.15
2017-04-15T09:20:06.786Z,732.17
2017-04-15T09:21:06.769Z,732.14
2017-04-15T09:22:06.752Z,732.26
2017-04-15T09:23:06.735Z,732.24
2017-04-15T09:24:06.716Z,732.14
2017-04-15T09:25:06.699Z,732.19
2017-04-15T09:26:06.679Z,732.02
2017-04-15T09:27:06.663Z,732.2
2017-04-15T09:28:06.645Z,732.08
2017-04-15T09:29:06.627Z,732.09
2017-04-15T09:30:06.610Z,732.12
2017-04-15T09:31:06.591Z,732.12
2017-04-15T09:32:06.574Z,732.02
2017-04-15T09:33:06.555Z,732.2
2017-04-15T09:34:06.538Z,732.29
2017-04-15T09:35:06.519Z,732.13
2017-04-15T09:36:06.503Z,732.04
2017-04-15T09:37:06.484Z,732.1
2017-04-15T09:38:06.465Z,732.14
2017-04-15T09:39:06.449Z,732.05
2017-04-15T09:40:06.428Z,732.06
2017-04-15T09:41:06.412Z,732.1
2017-04-15T09:42:06.393Z,732.1
2017-04-15T09:43:06.376Z,732.07
2017-04-15T09:44:06.356Z,732.13
2017-04-15T09:45:06.339Z,732.11
2017-04-15T09:46:06.325Z,732.09
2017-04-15T09:47:06.312Z,732.03
2017-04-15T09:48:06.285Z,732.02
2017-04-15T09:49:06.266Z,732.02
2017-04-15T09:50:06.262Z,731.98
2017-04-15T09:51:06.229Z,732.01
2017-04-15T09:52:06.210Z,731.94
2017-04-15T09:53:06.194Z,732.02
2017-04-15T09:54:06.186Z,732.04
2017-04-15T09:55:06.157Z,732.02
2017-04-15T09:56:06.142Z,732.03
2017-04-15T09:57:06.126Z,731.92
2017-04-15T09:58:06.102Z,731.99
2017-04-15T09:59:06.095Z,731.98
2017-04-15T10:00:06.069Z,732.02
2017-04-15T10:01:06.057Z,732.04
2017-04-15T10:02:06.040Z,731.98
2017-04-15T10:03:06.015Z,731.96
2017-04-15T10:04:05.999Z,731.91
2017-04-15T10:05:05.981Z,731.98
2017-04-15T10:06:05.962Z,731.92
2017-04-15T10:07:05.947Z,731.9
2017-04-15T10:08:05.928Z,731.93
2017-04-15T10:09:05.910Z,731.96
2017-04-15T10:10:05.895Z,731.99
2017-04-15T10:11:05.878Z,731.95
2017-04-15T10:12:05.860Z,731.91
2017-04-15T10:13:05.844Z,731.91
2017-04-15T10:14:05.827Z,731.93
2017-04-15T10:15:05.810Z,731.97
2017-04-15T10:16:05.794Z,731.99
2017-04-15T10:17:05.777Z,731.99
2017-04-15T10:18:05.760Z,731.93
2017-04-15T10:19:05.745Z,731.96
2017-04-15T10:20:05.726Z,732
2017-04-15T10:21:05.711Z,731.99
2017-04-15T10:22:05.694Z,732.03
2017-04-15T10:23:05.679Z,731.96
2017-04-15T10:24:05.660Z,732.03
2017-04-15T10:25:05.645Z,732.03
2017-04-15T10:26:05.628Z,732.05
2017-04-15T10:27:05.613Z,732.04
2017-04-15T10:28:05.595Z,732.03
2017-04-15T10:29:05.579Z,732.05
2017-04-15T10:30:05.563Z,732.03
2017-04-15T10:31:05.544Z,732.08
2017-04-15T10:32:05.530Z,731.93
2017-04-15T10:33:05.513Z,731.96
2017-04-15T10:34:05.498Z,731.95
2017-04-15T10:35:05.484Z,731.94
2017-04-15T10:36:05.465Z,731.89
2017-04-15T10:37:05.447Z,732.02
2017-04-15T10:38:05.432Z,731.98
2017-04-15T10:39:05.414Z,732.06
2017-04-15T10:40:05.397Z,731.99
2017-04-15T10:41:05.381Z,731.98
2017-04-15T10:42:05.364Z,731.98
2017-04-15T10:43:05.348Z,731.98
2017-04-15T10:44:05.331Z,732
2017-04-15T10:45:05.313Z,731.95
2017-04-15T10:46:05.295Z,732.01
2017-04-15T10:47:05.279Z,731.85
2017-04-15T10:48:05.263Z,731.94
2017-04-15T10:49:05.244Z,732.03
2017-04-15T10:50:05.226Z,731.91
2017-04-15T10:51:05.210Z,731.92
2017-04-15T10:52:05.192Z,731.88
2017-04-15T10:53:05.175Z,731.98
2017-04-15T10:54:05.156Z,731.91
2017-04-15T10:55:05.141Z,731.92
2017-04-15T10:56:05.122Z,731.86
2017-04-15T10:57:05.105Z,731.86
2017-04-15T10:58:05.087Z,731.84
2017-04-15T10:59:05.073Z,731.91
2017-04-15T11:00:05.054Z,731.97
2017-04-15T11:01:05.037Z,731.91
2017-04-15T11:02:05.020Z,731.91
2017-04-15T11:03:05.003Z,731.97
2017-04-15T11:04:04.984Z,731.85
2017-04-15T11:05:04.967Z,732.01
2017-04-15T11:06:04.952Z,731.95
2017-04-15T11:07:04.934Z,731.92
2017-04-15T11:08:04.917Z,731.94
2017-04-15T11:09:04.898Z,731.87
2017-04-15T11:10:04.881Z,731.85
2017-04-15T11:11:04.864Z,731.89
2017-04-15T11:12:04.845Z,731.9
2017-04-15T11:13:04.829Z,731.85
2017-04-15T11:14:04.813Z,731.86
2017-04-15T11:15:04.794Z,731.88
2017-04-15T11:16:04.777Z,731.85
2017-04-15T11:17:04.761Z,731.85
2017-04-15T11:18:04.745Z,731.87
2017-04-15T11:19:04.727Z,731.86
2017-04-15T11:20:04.712Z,731.87
2017-04-15T11:21:04.694Z,731.93
2017-04-15T11:22:04.678Z,731.96
2017-04-15T11:23:04.662Z,731.94
2017-04-15T11:24:04.646Z,731.84
2017-04-15T11:25:04.629Z,731.91
2017-04-15T11:26:04.612Z,731.94
2017-04-15T11:27:04.596Z,731.91
2017-04-15T11:28:04.580Z,731.97
2017-04-15T11:29:04.565Z,731.98
2017-04-15T11:30:04.549Z,732.05
2017-04-15T11:31:04.532Z,731.88
2017-04-15T11:32:04.516Z,731.96
2017-04-15T11:33:04.498Z,732.03
2017-04-15T11:34:04.482Z,732.01
2017-04-15T11:35:04.464Z,732.04
2017-04-15T11:36:04.446Z,731.94
2017-04-15T11:37:04.429Z,731.94
2017-04-15T11:38:04.412Z,731.9
2017-04-15T11:39:04.395Z,731.82
2017-04-15T11:40:04.378Z,731.94
2017-04-15T11:41:04.359Z,731.91
2017-04-15T11:42:04.340Z,731.92
2017-04-15T11:43:04.325Z,731.97
2017-04-15T11:44:04.305Z,731.95
2017-04-15T11:45:04.285Z,731.96
2017-04-15T11:46:04.270Z,731.92
2017-04-15T11:47:04.251Z,731.93
2017-04-15T11:48:04.233Z,732
2017-04-15T11:49:04.216Z,731.94
2017-04-15T11:50:04.199Z,731.95
2017-04-15T11:51:04.181Z,731.95
2017-04-15T11:52:04.163Z,731.94
2017-04-15T11:53:04.151Z,731.96
2017-04-15T11:54:04.129Z,731.95
2017-04-15T11:55:04.110Z,731.93
2017-04-15T11:56:04.093Z,731.99
2017-04-15T11:57:04.073Z,731.9
2017-04-15T11:58:04.059Z,731.97
2017-04-15T11:59:04.039Z,731.93
2017-04-15T12:00:04.021Z,731.94
2017-04-15T12:01:04.007Z,731.89
2017-04-15T12:02:03.985Z,731.86
2017-04-15T12:03:03.969Z,731.94
2017-04-15T12:04:03.950Z,732
2017-04-15T12:05:03.931Z,731.93
2017-04-15T12:06:03.915Z,731.98
2017-04-15T12:07:03.895Z,732.04
2017-04-15T12:08:03.878Z,732.01
2017-04-15T12:09:03.863Z,731.96
2017-04-15T12:10:03.844Z,731.91
2017-04-15T12:11:03.830Z,731.92
2017-04-15T12:12:03.811Z,731.87
2017-04-15T12:13:03.795Z,731.97
2017-04-15T12:14:03.776Z,731.96
2017-04-15T12:15:03.758Z,732
2017-04-15T12:16:03.742Z,732.04
2017-04-15T12:17:03.722Z,732.02
2017-04-15T12:18:03.705Z,731.96
2017-04-15T12:19:03.687Z,731.98
2017-04-15T12:20:03.669Z,732
2017-04-15T12:21:03.651Z,731.94
2017-04-15T12:22:03.634Z,731.97
2017-04-15T12:23:03.618Z,731.88
2017-04-15T12:24:03.598Z,731.98
2017-04-15T12:25:03.577Z,731.88
2017-04-15T12:26:03.560Z,731.92
2017-04-15T12:27:03.541Z,731.76
2017-04-15T12:28:03.522Z,731.85
2017-04-15T12:29:03.506Z,731.84
2017-04-15T12:30:03.487Z,731.92
2017-04-15T12:31:03.470Z,731.85